createdAt,value
2018-11-22T00:00:25.218Z,26.87
2018-11-22T00:03:08.031Z,26.63
2018-11-22T00:05:50.891Z,26.40
2018-11-22T00:08:32.600Z,25.30
2018-11-22T00:11:14.429Z,25.70
2018-11-22T00:13:56.498Z,23.90
2018-11-22T00:16:38.790Z,26.13
2018-11-22T00:19:20.207Z,26.20
2018-11-22T00:22:02.095Z,25.03
2018-11-22T00:24:44.189Z,22.57
2018-11-22T00:27:25.771Z,22.77
2018-11-22T00:30:07.533Z,22.60
2018-11-22T00:32:48.711Z,22.63
2018-11-22T00:35:31.780Z,22.53
2018-11-22T00:38:13.366Z,23.57
2018-11-22T00:40:54.933Z,23.63
2018-11-22T00:43:37.036Z,24.47
2018-11-22T00:46:18.904Z,24.17
2018-11-22T00:49:00.572Z,23.70
2018-11-22T00:51:42.216Z,25.13
2018-11-22T00:54:23.600Z,25.93
2018-11-22T00:57:07.002Z,26.30
2018-11-22T00:59:49.278Z,26.20
2018-11-22T01:02:32.216Z,26.10
2018-11-22T01:05:13.996Z,26.30
2018-11-22T01:07:56.410Z,24.87
2018-11-22T01:10:38.793Z,25.07
2018-11-22T01:13:21.681Z,24.80
2018-11-22T01:16:04.536Z,23.63
2018-11-22T01:18:47.383Z,23.57
2018-11-22T01:21:30.488Z,24.93
2018-11-22T01:24:13.003Z,24.50
2018-11-22T01:26:55.868Z,24.43
2018-11-22T01:29:38.771Z,23.10
2018-11-22T01:32:21.308Z,23.00
2018-11-22T01:35:02.975Z,22.63
2018-11-22T01:37:44.222Z,23.87
2018-11-22T01:40:26.385Z,23.30
2018-11-22T01:43:07.389Z,24.03
2018-11-22T01:45:49.571Z,22.23
2018-11-22T01:48:30.260Z,23.87
2018-11-22T01:51:12.163Z,23.23
2018-11-22T01:53:52.808Z,25.37
2018-11-22T01:56:34.773Z,23.93
2018-11-22T01:59:15.786Z,24.57
2018-11-22T02:01:58.233Z,25.27
2018-11-22T02:04:39.032Z,25.13
2018-11-22T02:07:21.188Z,23.60
2018-11-22T02:10:02.372Z,22.93
2018-11-22T02:12:44.368Z,23.43
2018-11-22T02:15:28.002Z,24.70
2018-11-22T02:18:09.713Z,25.60
2018-11-22T02:20:50.409Z,23.90
2018-11-22T02:23:31.632Z,26.00
2018-11-22T02:26:12.391Z,26.97
2018-11-22T02:28:54.211Z,25.20
2018-11-22T02:31:35.289Z,24.10
2018-11-22T02:34:17.389Z,24.67
2018-11-22T02:36:58.046Z,23.90
2018-11-22T02:39:39.765Z,24.07
2018-11-22T02:42:21.699Z,23.83
2018-11-22T02:45:03.571Z,24.27
2018-11-22T02:47:45.416Z,24.33
2018-11-22T02:50:27.755Z,23.03
2018-11-22T02:53:09.757Z,23.70
2018-11-22T02:55:51.542Z,24.80
2018-11-22T02:58:32.397Z,24.13
2018-11-22T03:01:14.294Z,24.77
2018-11-22T03:03:55.237Z,24.77
2018-11-22T03:06:37.135Z,23.67
2018-11-22T03:09:18.612Z,24.03
2018-11-22T03:15:25.480Z,23.07
2018-11-22T03:18:07.147Z,24.25
2018-11-22T03:20:48.712Z,24.10
2018-11-22T03:23:32.093Z,23.80
2018-11-22T03:26:14.340Z,22.57
2018-11-22T03:28:55.674Z,24.37
2018-11-22T03:31:37.413Z,24.40
2018-11-22T03:34:19.694Z,29.60
2018-11-22T03:37:01.376Z,30.87
2018-11-22T03:39:43.176Z,32.30
2018-11-22T03:42:23.877Z,30.33
2018-11-22T03:45:06.050Z,31.63
2018-11-22T03:47:46.652Z,29.47
2018-11-22T03:50:28.934Z,28.13
2018-11-22T03:53:09.910Z,27.20
2018-11-22T03:55:51.895Z,27.87
2018-11-22T03:58:32.610Z,24.80
2018-11-22T04:01:14.132Z,25.33
2018-11-22T04:03:55.715Z,24.07
2018-11-22T04:06:38.268Z,24.30
2018-11-22T04:09:20.040Z,24.47
2018-11-22T04:14:44.017Z,22.63
2018-11-22T04:17:25.461Z,22.77
2018-11-22T04:20:07.352Z,23.30
2018-11-22T04:22:50.660Z,23.60
2018-11-22T04:25:36.784Z,22.97
2018-11-22T04:28:21.366Z,25.17
2018-11-22T04:31:03.849Z,23.83
2018-11-22T04:33:47.013Z,22.33
2018-11-22T04:36:30.309Z,23.83
2018-11-22T04:39:12.800Z,27.42
2018-11-22T04:41:55.803Z,25.40
2018-11-22T04:44:39.309Z,25.57
2018-11-22T04:47:22.741Z,28.27
2018-11-22T04:50:06.491Z,25.23
2018-11-22T04:52:49.488Z,25.53
2018-11-22T04:55:32.823Z,24.90
2018-11-22T04:58:15.892Z,23.00
2018-11-22T05:00:58.896Z,22.43
2018-11-22T05:03:41.868Z,20.87
2018-11-22T05:06:24.971Z,21.27
2018-11-22T05:09:08.241Z,21.67
2018-11-22T05:11:50.152Z,20.67
2018-11-22T05:14:31.921Z,21.57
2018-11-22T05:17:14.713Z,20.83
2018-11-22T05:19:56.797Z,21.57
2018-11-22T05:22:39.519Z,22.20
2018-11-22T05:25:21.258Z,21.60
2018-11-22T05:28:03.415Z,21.57
2018-11-22T05:30:45.617Z,21.40
2018-11-22T05:33:28.268Z,21.57
2018-11-22T05:36:10.136Z,22.20
2018-11-22T05:38:52.276Z,20.97
2018-11-22T05:41:34.176Z,20.90
2018-11-22T05:44:16.931Z,21.40
2018-11-22T05:47:02.627Z,21.70
2018-11-22T05:49:40.440Z,22.80
2018-11-22T05:52:24.737Z,24.17
2018-11-22T05:55:11.671Z,24.13
2018-11-22T05:57:53.236Z,24.87
2018-11-22T06:00:35.283Z,24.77
2018-11-22T06:03:17.328Z,25.40
2018-11-22T06:05:59.136Z,25.03
2018-11-22T06:08:40.018Z,23.77
2018-11-22T06:11:22.042Z,25.77
2018-11-22T06:14:02.802Z,26.70
2018-11-22T06:16:44.902Z,25.33
2018-11-22T06:19:25.947Z,26.60
2018-11-22T06:22:07.948Z,26.40
2018-11-22T06:24:48.616Z,26.27
2018-11-22T06:27:31.995Z,26.17
2018-11-22T06:30:18.099Z,25.70
2018-11-22T06:33:01.017Z,26.37
2018-11-22T06:35:42.066Z,26.50
2018-11-22T06:38:24.855Z,28.03
2018-11-22T06:41:06.661Z,30.03
2018-11-22T06:43:48.876Z,41.98
2018-11-22T06:46:30.728Z,38.10
2018-11-22T06:49:12.774Z,34.57
2018-11-22T06:51:55.605Z,31.20
2018-11-22T06:54:38.103Z,30.90
2018-11-22T06:57:19.755Z,29.83
2018-11-22T07:00:01.693Z,28.27
2018-11-22T07:02:43.662Z,28.50
2018-11-22T07:05:26.273Z,27.47
2018-11-22T07:08:07.396Z,30.70
2018-11-22T07:10:49.248Z,31.80
2018-11-22T07:13:30.043Z,29.53
2018-11-22T07:16:12.301Z,27.60
2018-11-22T07:18:54.285Z,29.80
2018-11-22T07:21:37.316Z,29.87
2018-11-22T07:24:18.193Z,30.93
2018-11-22T07:27:00.270Z,30.07
2018-11-22T07:29:42.002Z,31.47
2018-11-22T07:32:25.769Z,30.53
2018-11-22T07:35:07.541Z,31.07
2018-11-22T07:37:49.368Z,31.70
2018-11-22T07:40:29.975Z,31.47
2018-11-22T07:43:12.271Z,31.20
2018-11-22T07:45:53.629Z,29.80
2018-11-22T07:48:36.620Z,31.47
2018-11-22T07:51:18.825Z,32.10
2018-11-22T07:54:02.454Z,31.17
2018-11-22T07:56:44.370Z,31.67
2018-11-22T07:59:27.403Z,30.67
2018-11-22T08:02:11.030Z,33.53
2018-11-22T08:04:53.835Z,32.73
2018-11-22T08:07:37.052Z,33.20
2018-11-22T08:10:20.413Z,36.53
2018-11-22T08:13:08.181Z,36.20
2018-11-22T08:15:52.353Z,32.60
2018-11-22T08:18:34.788Z,33.33
2018-11-22T08:21:17.809Z,30.30
2018-11-22T08:24:00.831Z,32.03
2018-11-22T08:26:43.884Z,32.83
2018-11-22T08:29:25.085Z,30.50
2018-11-22T08:32:08.294Z,29.70
2018-11-22T08:34:53.125Z,30.97
2018-11-22T08:37:37.747Z,29.70
2018-11-22T08:40:18.780Z,29.83
2018-11-22T08:43:02.062Z,28.93
2018-11-22T08:45:44.135Z,29.70
2018-11-22T08:48:27.116Z,26.80
2018-11-22T08:51:08.384Z,27.20
2018-11-22T08:53:49.851Z,25.80
2018-11-22T08:56:32.909Z,26.17
2018-11-22T08:59:14.866Z,24.73
2018-11-22T09:01:55.495Z,24.30
2018-11-22T09:04:36.954Z,24.47
2018-11-22T09:07:17.668Z,26.03
2018-11-22T09:13:12.176Z,24.70
2018-11-22T09:15:55.194Z,25.07
2018-11-22T09:18:37.624Z,24.93
2018-11-22T09:21:23.101Z,25.47
2018-11-22T09:24:05.800Z,26.67
2018-11-22T09:26:51.627Z,25.43
2018-11-22T09:29:39.420Z,28.20
2018-11-22T09:32:17.803Z,26.47
2018-11-22T09:35:00.920Z,25.73
2018-11-22T09:37:43.520Z,25.00
2018-11-22T09:40:27.311Z,24.93
2018-11-22T09:43:09.084Z,24.13
2018-11-22T09:45:50.533Z,23.83
2018-11-22T09:48:32.207Z,23.07
2018-11-22T09:54:00.869Z,23.80
2018-11-22T09:56:43.972Z,23.53
2018-11-22T09:59:26.088Z,24.27
2018-11-22T10:02:08.156Z,22.13
2018-11-22T10:04:50.080Z,19.40
2018-11-22T10:07:32.609Z,24.67
2018-11-22T10:10:18.657Z,26.27
2018-11-22T10:13:10.871Z,26.37
2018-11-22T10:15:53.401Z,25.70
2018-11-22T10:18:35.940Z,24.33
2018-11-22T10:21:18.127Z,24.33
2018-11-22T10:24:00.686Z,22.30
2018-11-22T10:26:44.130Z,24.63
2018-11-22T10:29:26.451Z,23.80
2018-11-22T10:32:09.431Z,22.53
2018-11-22T10:34:54.091Z,23.57
2018-11-22T10:37:36.479Z,23.40
2018-11-22T10:40:21.099Z,25.68
2018-11-22T10:45:47.334Z,25.33
2018-11-22T10:48:29.724Z,23.63
2018-11-22T10:51:11.819Z,23.80
2018-11-22T10:53:53.404Z,24.47
2018-11-22T10:56:35.824Z,24.80
2018-11-22T10:59:16.831Z,25.00
2018-11-22T11:05:00.572Z,23.83
2018-11-22T11:08:05.069Z,24.40
2018-11-22T11:10:46.128Z,24.70
2018-11-22T11:13:28.762Z,25.27
2018-11-22T11:16:09.940Z,25.57
2018-11-22T11:18:52.333Z,24.70
2018-11-22T11:21:36.867Z,25.80
2018-11-22T11:24:19.954Z,25.73
2018-11-22T11:27:02.014Z,24.77
2018-11-22T11:29:45.050Z,25.47
2018-11-22T11:32:26.966Z,26.57
2018-11-22T11:35:10.793Z,25.93
2018-11-22T11:37:52.082Z,26.57
2018-11-22T11:40:36.483Z,26.30
2018-11-22T11:43:18.655Z,28.17
2018-11-22T11:46:00.994Z,26.53
2018-11-22T11:48:42.614Z,28.40
2018-11-22T11:51:25.457Z,28.25
2018-11-22T11:54:07.348Z,26.83
2018-11-22T11:56:50.261Z,26.50
2018-11-22T11:59:31.865Z,27.67
2018-11-22T12:02:15.348Z,28.83
2018-11-22T12:04:57.190Z,26.27
2018-11-22T12:07:38.964Z,27.20
2018-11-22T12:10:20.968Z,27.07
2018-11-22T12:13:04.946Z,26.97
2018-11-22T12:18:32.494Z,23.03
2018-11-22T12:24:12.213Z,21.87
2018-11-22T12:26:53.897Z,28.07
2018-11-22T12:29:35.580Z,31.43
2018-11-22T12:32:39.911Z,33.67
2018-11-22T12:35:21.260Z,35.63
2018-11-22T12:41:03.457Z,33.77
2018-11-22T12:43:45.902Z,34.27
2018-11-22T12:46:27.801Z,32.13
2018-11-22T12:49:10.394Z,33.23
2018-11-22T12:51:52.802Z,29.90
2018-11-22T12:54:36.204Z,27.20
2018-11-22T12:57:18.070Z,26.77
2018-11-22T13:00:00.942Z,28.60
2018-11-22T13:02:43.362Z,27.77
2018-11-22T13:05:26.354Z,28.23
2018-11-22T13:08:07.702Z,28.27
2018-11-22T13:10:49.580Z,25.17
2018-11-22T13:16:38.802Z,26.50
2018-11-22T13:22:05.682Z,26.73
2018-11-22T13:27:37.239Z,25.90
2018-11-22T13:33:10.077Z,24.57
2018-11-22T13:38:38.882Z,27.10
2018-11-22T13:44:06.731Z,26.23
2018-11-22T13:46:50.096Z,26.93
2018-11-22T13:49:32.309Z,26.43
2018-11-22T13:52:17.024Z,26.50
2018-11-22T13:54:58.489Z,26.67
2018-11-22T13:57:41.093Z,25.80
2018-11-22T14:00:24.016Z,24.97
2018-11-22T14:03:08.216Z,27.00
2018-11-22T14:05:50.969Z,28.97
2018-11-22T14:08:34.494Z,28.63
2018-11-22T14:11:16.536Z,28.73
2018-11-22T14:13:58.189Z,28.40
2018-11-22T14:16:40.696Z,27.43
2018-11-22T14:19:22.890Z,28.43
2018-11-22T14:22:04.706Z,31.10
2018-11-22T14:24:46.255Z,29.87
2018-11-22T14:27:28.508Z,30.90
2018-11-22T14:30:15.640Z,30.97
2018-11-22T14:32:57.649Z,32.23
2018-11-22T14:35:40.661Z,30.80
2018-11-22T14:38:22.278Z,30.63
2018-11-22T14:41:04.055Z,31.37
2018-11-22T14:43:45.592Z,29.20
2018-11-22T14:46:27.355Z,28.63
2018-11-22T14:49:08.156Z,28.47
2018-11-22T14:51:50.059Z,29.37
2018-11-22T14:54:31.907Z,29.57
2018-11-22T14:59:53.863Z,29.93
2018-11-22T15:02:35.444Z,29.20
2018-11-22T15:05:18.142Z,32.50
2018-11-22T15:07:59.966Z,31.27
2018-11-22T15:10:41.316Z,33.73
2018-11-22T15:13:24.067Z,32.17
2018-11-22T15:16:05.760Z,32.70
2018-11-22T15:18:47.607Z,32.87
2018-11-22T15:21:30.501Z,32.50
2018-11-22T15:24:12.682Z,33.00
2018-11-22T15:26:54.733Z,33.10
2018-11-22T15:29:36.782Z,32.37
2018-11-22T15:32:18.754Z,33.53
2018-11-22T15:35:00.675Z,32.63
2018-11-22T15:37:42.614Z,33.30
2018-11-22T15:40:26.012Z,32.27
2018-11-22T15:43:07.951Z,32.27
2018-11-22T15:45:50.037Z,32.50
2018-11-22T15:48:31.800Z,33.90
2018-11-22T15:51:13.480Z,36.13
2018-11-22T15:53:54.783Z,38.47
2018-11-22T15:56:36.907Z,33.20
2018-11-22T15:59:18.829Z,32.33
2018-11-22T16:04:42.829Z,35.47
2018-11-22T16:07:25.137Z,33.80
2018-11-22T16:10:06.895Z,33.40
2018-11-22T16:12:48.581Z,36.37
2018-11-22T16:15:31.413Z,37.87
2018-11-22T16:18:13.980Z,39.20
2018-11-22T16:20:56.378Z,44.33
2018-11-22T16:23:39.044Z,46.10
2018-11-22T16:26:21.308Z,43.53
2018-11-22T16:29:04.508Z,39.20
2018-11-22T16:31:47.379Z,42.73
2018-11-22T16:34:30.215Z,42.73
2018-11-22T16:37:12.749Z,43.97
2018-11-22T16:39:55.864Z,43.53
2018-11-22T16:42:36.655Z,46.07
2018-11-22T16:48:22.301Z,48.03
2018-11-22T16:51:07.274Z,51.50
2018-11-22T16:53:50.176Z,50.07
2018-11-22T16:56:31.450Z,47.53
2018-11-22T16:59:13.021Z,50.40
2018-11-22T17:01:55.893Z,51.10
2018-11-22T17:04:37.618Z,50.87
2018-11-22T17:07:20.980Z,48.97
2018-11-22T17:10:03.829Z,49.80
2018-11-22T17:12:48.453Z,51.63
2018-11-22T17:15:33.297Z,49.60
2018-11-22T17:18:16.894Z,48.43
2018-11-22T17:21:01.831Z,58.90
2018-11-22T17:23:44.696Z,66.67
2018-11-22T17:26:27.635Z,52.53
2018-11-22T17:29:09.444Z,51.07
2018-11-22T17:31:50.920Z,49.97
2018-11-22T17:34:32.670Z,54.50
2018-11-22T17:37:14.713Z,50.80
2018-11-22T17:39:56.809Z,51.17
2018-11-22T17:42:38.741Z,49.67
2018-11-22T17:48:22.442Z,51.23
2018-11-22T17:51:05.724Z,49.93
2018-11-22T17:53:48.468Z,50.43
2018-11-22T17:56:35.956Z,48.53
2018-11-22T17:59:18.279Z,51.67
2018-11-22T18:02:00.265Z,56.03
2018-11-22T18:04:43.043Z,57.77
2018-11-22T18:07:24.333Z,56.73
2018-11-22T18:10:05.596Z,53.20
2018-11-22T18:12:48.603Z,56.23
2018-11-22T18:15:32.249Z,52.47
2018-11-22T18:21:05.227Z,61.37
2018-11-22T18:23:47.728Z,60.10
2018-11-22T18:26:29.478Z,57.93
2018-11-22T18:29:11.228Z,58.13
2018-11-22T18:31:52.671Z,56.60
2018-11-22T18:34:34.627Z,51.13
2018-11-22T18:37:16.803Z,52.43
2018-11-22T18:39:58.433Z,53.67
2018-11-22T18:42:39.334Z,53.47
2018-11-22T18:48:20.973Z,59.53
2018-11-22T18:51:02.508Z,59.03
2018-11-22T18:53:43.464Z,59.63
2018-11-22T18:56:25.253Z,64.73
2018-11-22T18:59:06.530Z,62.27
2018-11-22T19:01:48.787Z,61.47
2018-11-22T19:04:30.598Z,61.50
2018-11-22T19:07:12.589Z,61.60
2018-11-22T19:09:54.673Z,63.30
2018-11-22T19:12:36.647Z,64.70
2018-11-22T19:15:17.466Z,64.60
2018-11-22T19:17:59.677Z,66.93
2018-11-22T19:20:42.751Z,67.27
2018-11-22T19:23:24.736Z,63.40
2018-11-22T19:26:06.790Z,63.40
2018-11-22T19:28:49.753Z,68.10
2018-11-22T19:31:31.715Z,66.40
2018-11-22T19:34:14.378Z,80.70
2018-11-22T19:36:56.541Z,68.97
2018-11-22T19:39:40.540Z,66.37
2018-11-22T19:42:22.787Z,68.70
2018-11-22T19:47:45.077Z,69.93
2018-11-22T19:50:28.916Z,75.43
2018-11-22T19:53:13.381Z,73.43
2018-11-22T19:55:56.680Z,73.10
2018-11-22T19:58:39.930Z,84.37
2018-11-22T20:01:21.759Z,72.73
2018-11-22T20:04:04.509Z,69.57
2018-11-22T20:06:47.513Z,69.63
2018-11-22T20:09:29.843Z,70.87
2018-11-22T20:12:13.757Z,67.77
2018-11-22T20:14:55.614Z,65.10
2018-11-22T20:17:38.989Z,62.23
2018-11-22T20:20:22.000Z,63.87
2018-11-22T20:23:05.141Z,61.70
2018-11-22T20:25:47.840Z,60.83
2018-11-22T20:28:31.426Z,61.30
2018-11-22T20:31:14.711Z,60.03
2018-11-22T20:33:58.218Z,57.90
2018-11-22T20:36:41.276Z,57.80
2018-11-22T20:39:23.573Z,54.73
2018-11-22T20:42:05.890Z,54.43
2018-11-22T20:44:50.453Z,58.00
2018-11-22T20:47:39.826Z,58.87
2018-11-22T20:50:24.206Z,57.30
2018-11-22T20:53:05.551Z,65.70
2018-11-22T20:55:47.486Z,64.73
2018-11-22T20:58:28.646Z,67.17
2018-11-22T21:01:10.776Z,67.60
2018-11-22T21:03:52.903Z,58.07
2018-11-22T21:06:34.629Z,52.00
2018-11-22T21:09:15.650Z,49.63
2018-11-22T21:11:57.772Z,50.90
2018-11-22T21:14:39.570Z,47.00
2018-11-22T21:17:21.383Z,48.33
2018-11-22T21:20:03.166Z,46.60
2018-11-22T21:22:44.390Z,45.97
2018-11-22T21:25:26.398Z,45.47
2018-11-22T21:28:08.442Z,46.33
2018-11-22T21:30:50.674Z,46.27
2018-11-22T21:33:32.572Z,42.33
2018-11-22T21:36:14.151Z,42.63
2018-11-22T21:38:55.828Z,41.77
2018-11-22T21:41:37.694Z,40.07
2018-11-22T21:44:21.757Z,39.90
2018-11-22T21:47:03.456Z,40.33
2018-11-22T21:49:45.032Z,41.07
2018-11-22T21:52:26.547Z,38.77
2018-11-22T21:57:48.705Z,40.33
2018-11-22T22:00:31.522Z,38.03
2018-11-22T22:03:13.179Z,38.40
2018-11-22T22:05:54.309Z,41.73
2018-11-22T22:08:35.390Z,45.37
2018-11-22T22:11:17.126Z,44.67
2018-11-22T22:13:57.821Z,41.97
2018-11-22T22:16:39.647Z,43.37
2018-11-22T22:19:21.094Z,42.30
2018-11-22T22:22:03.596Z,42.57
2018-11-22T22:24:45.044Z,43.87
2018-11-22T22:27:26.708Z,42.33
2018-11-22T22:30:08.106Z,41.37
2018-11-22T22:32:51.826Z,44.60
2018-11-22T22:35:33.430Z,50.83
2018-11-22T22:38:16.106Z,49.83
2018-11-22T22:40:59.820Z,42.27
2018-11-22T22:43:42.856Z,41.07
2018-11-22T22:46:25.737Z,38.97
2018-11-22T22:49:08.793Z,37.10
2018-11-22T22:51:52.658Z,40.30
2018-11-22T22:54:35.749Z,39.53
2018-11-22T22:57:18.611Z,37.83
2018-11-22T23:00:01.589Z,39.07
2018-11-22T23:02:44.448Z,37.73
2018-11-22T23:05:28.125Z,38.70
2018-11-22T23:08:09.213Z,39.40
2018-11-22T23:10:50.587Z,39.17
2018-11-22T23:13:32.584Z,39.83
2018-11-22T23:16:15.838Z,38.37
2018-11-22T23:18:56.941Z,38.60
2018-11-22T23:21:39.483Z,39.43
2018-11-22T23:24:21.395Z,37.37
2018-11-22T23:27:04.803Z,36.90
2018-11-22T23:29:46.822Z,36.10
2018-11-22T23:32:30.308Z,35.93
2018-11-22T23:35:12.169Z,36.30
2018-11-22T23:37:54.584Z,35.97
2018-11-22T23:40:36.505Z,36.47
2018-11-22T23:43:19.435Z,34.73
2018-11-22T23:46:01.203Z,35.60
2018-11-22T23:48:42.852Z,36.30
2018-11-22T23:51:24.654Z,35.17
2018-11-22T23:54:06.981Z,37.37
2018-11-22T23:56:54.615Z,37.10
2018-11-22T23:59:31.419Z,36.73
